Terminal Aerodrome Forecast
Issued by NWS

Home | Current Version | Previous Version | Text Only | Print | Product List | Glossary On
Versions: 1 2 3 4 5 6 7 8 9 10 11 12 13 14 15 16 17 18 19 20 21 22 23 24 25 26 27 28 29 30 31 32 33 34
608
FTUS43 KDLH 152011 AAA
TAFBRD
TAF AMD
KBRD 152011Z 1520/1618 VRB02KT P6SM OVC027
     FM152200 VRB03KT 3SM -SN OVC027
     FM152300 13005KT 1 1/2SM -SN OVC011
     FM161000 11008KT 3SM -SN OVC008=

USA.gov is the U.S. government's official web portal to all federal, state and local government web resources and services.